Strona główna
METAR-TAF:

METAR-TAF

Lotnisko :

Port lotniczy Pau Pyrénées

Pau, Francja

Szerokość geograficzna: 43-23N, Długość geograficzna: 000-25W, wysokość: 188 m

Aktualna obserwacja pogody

Raport powstał 29 minut temu, godzina 18:30 UTC
Wiatr 5 kt od wschodnio-północny wschód, zmienny między północny wschód i wschód
Temperatura 29°C
Wilgotność 48%
Ciśnienie 1009 hPa
Widzialność 10 km lub więcej
Brak chmur poniżej 1500 m i brak chmur cumulonimbus

METAR: LFBP 251830Z AUTO 07005KT 040V100 CAVOK 29/17 Q1009 NOSIG

czas: 20:59 (18:59 UTC)

Prognoza

Raport powstał 1 godzina i 59 minut temu, godzina 17:00 UTC
Prognoza ważna od 25 godzina 18 UTC do 26 godzina 18 UTC
Wiatr 5 kt od wschód
Widzialność 10 km lub więcej
Brak chmur poniżej 1500 m i brak chmur cumulonimbus

TAF: LFBP 251700Z 2518/2618 08005KT CAVOK

Obserwacja i prognoza pogody dla ponad 4000 lotnisk (raport METAR i TAF).

Dostępne stacje oznaczono żółtymi i czerwonymi punktami na mapie.

Najedź kursorem aby zobaczyć nazwę stacji.

Kliknij aby zobaczyć obserwacje i prognozy pogody.

Aby zmienić mapę: kliknij na zielony przycisk z czarnym krzyżykiem, aby powiększyć; na zielony przycisk z myślnikiem, aby pomniejszyć; na zielone strzałki, aby przejść do map sąsiednich.


METAR-TAF: